Time;durP1;ratioP1;P1;durP2;ratioP2;P2;SDS_P1;SDS_P2;PMS_P1;PMS_P2;Temp;Humidity;BMP_temperature;BMP_pressure;BME280_temperature;BME280_humidity;BME280_pressure;Samples;Min_cycle;Max_cycle;Signal;HPM_P1;HPM_P2
2021/04/27 00:01:11;;;;;;;87.30;31.05;;;;;;;3.82;41.27;98492.56;5052061;28;20028;-80
2021/04/27 00:03:37;;;;;;;84.38;30.15;;;;;;;3.78;40.55;98488.72;5053135;28;20036;-80
2021/04/27 00:06:03;;;;;;;78.18;29.23;;;;;;;3.71;41.42;98483.44;5052940;28;20025;-80
2021/04/27 00:08:28;;;;;;;62.38;24.27;;;;;;;3.67;41.08;98484.22;5051811;28;20029;-80
2021/04/27 00:10:54;;;;;;;65.70;24.30;;;;;;;3.61;40.93;98479.78;5053042;28;20032;-80
2021/04/27 00:13:19;;;;;;;63.55;25.30;;;;;;;3.58;41.81;98484.63;5052974;28;20025;-80
2021/04/27 00:15:44;;;;;;;57.25;23.08;;;;;;;3.55;41.34;98473.47;5052821;28;20037;-80
2021/04/27 00:18:10;;;;;;;58.03;21.73;;;;;;;3.52;41.25;98471.25;5052963;28;20052;-81
2021/04/27 00:20:35;;;;;;;54.28;19.38;;;;;;;3.52;41.31;98471.25;5052775;28;20116;-81
2021/04/27 00:23:01;;;;;;;43.97;16.95;;;;;;;3.47;42.02;98469.28;5052635;28;20036;-81
2021/04/27 00:25:27;;;;;;;42.42;15.43;;;;;;;3.47;42.22;98469.28;5052751;28;20035;-81
2021/04/27 00:27:54;;;;;;;38.00;15.15;;;;;;;3.44;41.45;98458.97;5052993;28;20071;-81
2021/04/27 00:30:22;;;;;;;45.53;17.40;;;;;;;3.45;42.13;98462.47;5053521;28;20438;-81
2021/04/27 00:32:48;;;;;;;38.92;15.73;;;;;;;3.38;42.22;98460.75;5052845;28;20456;-80
2021/04/27 00:35:14;;;;;;;44.70;16.80;;;;;;;3.34;42.35;98466.94;5052837;28;20406;-80
2021/04/27 00:37:41;;;;;;;51.88;19.90;;;;;;;3.30;42.32;98461.19;5052466;28;20080;-80
2021/04/27 00:40:08;;;;;;;51.85;18.63;;;;;;;3.25;42.22;98466.53;5052688;28;20070;-80
2021/04/27 00:42:37;;;;;;;48.03;17.63;;;;;;;3.17;42.47;98458.81;5052450;28;20075;-80
2021/04/27 00:45:07;;;;;;;52.65;18.90;;;;;;;3.10;42.10;98457.09;5052574;28;20136;-81
2021/04/27 00:47:32;;;;;;;48.17;17.67;;;;;;;3.06;42.82;98457.81;5052593;28;20017;-80
2021/04/27 00:49:57;;;;;;;47.67;16.33;;;;;;;3.04;42.76;98451.88;5052757;28;20373;-80
2021/04/27 00:52:24;;;;;;;44.88;17.75;;;;;;;3.04;42.82;98446.44;5052439;28;20385;-81
2021/04/27 00:54:51;;;;;;;46.95;18.38;;;;;;;3.00;42.24;98454.22;5054467;28;20021;-80
2021/04/27 00:57:18;;;;;;;44.28;18.67;;;;;;;2.94;42.67;98452.50;5052712;28;20032;-81
2021/04/27 00:59:43;;;;;;;49.03;19.63;;;;;;;2.90;42.91;98459.47;5053006;28;20024;-81
2021/04/27 01:02:09;;;;;;;46.92;20.33;;;;;;;2.81;42.96;98468.03;5054227;28;20029;-81
2021/04/27 01:04:34;;;;;;;48.13;21.30;;;;;;;2.70;42.67;98458.09;5056861;28;20025;-81
2021/04/27 01:07:00;;;;;;;47.42;21.95;;;;;;;2.58;43.37;98444.63;5056688;28;20033;-80
2021/04/27 01:09:29;;;;;;;53.08;21.15;;;;;;;2.50;43.70;98453.94;5056528;28;20029;-81
2021/04/27 01:12:11;;;;;;;47.00;19.88;;;;;;;2.40;43.46;98442.94;5056321;28;20063;-81
2021/04/27 01:14:43;;;;;;;49.63;20.27;;;;;;;2.34;44.00;98452.03;5060550;28;20048;-81
2021/04/27 01:17:11;;;;;;;49.92;20.25;;;;;;;2.28;44.13;98453.81;5059564;28;20114;-81
2021/04/27 01:19:58;;;;;;;48.72;19.63;;;;;;;2.20;44.40;98454.22;5056202;28;20052;-81
2021/04/27 01:22:47;;;;;;;50.22;20.60;;;;;;;2.10;44.18;98457.53;5056281;28;20513;-81
2021/04/27 01:25:19;;;;;;;50.30;20.75;;;;;;;2.02;44.42;98455.22;5056205;28;20021;-80
2021/04/27 01:27:44;;;;;;;49.65;20.58;;;;;;;1.94;44.32;98456.41;5055992;28;20107;-81
2021/04/27 01:30:11;;;;;;;50.92;21.88;;;;;;;1.88;44.69;98465.47;5054894;28;20025;-81
2021/04/27 01:32:37;;;;;;;53.90;21.27;;;;;;;1.81;45.18;98452.09;5056508;28;20021;-81
2021/04/27 01:35:04;;;;;;;52.83;22.02;;;;;;;1.75;45.66;98448.47;5056208;28;20052;-80
2021/04/27 01:37:29;;;;;;;55.22;22.30;;;;;;;1.68;45.18;98455.06;5056006;28;20032;-81
2021/04/27 01:39:55;;;;;;;56.03;23.10;;;;;;;1.61;45.65;98452.50;5056008;28;20036;-81
2021/04/27 01:42:20;;;;;;;60.97;23.23;;;;;;;1.56;45.70;98450.50;5055936;28;20067;-81
2021/04/27 01:44:46;;;;;;;59.70;22.83;;;;;;;1.52;45.77;98454.75;5055869;28;20025;-81
2021/04/27 01:47:12;;;;;;;52.88;22.20;;;;;;;1.46;45.71;98459.19;5055911;28;20036;-81
2021/04/27 01:49:41;;;;;;;53.92;20.83;;;;;;;1.41;46.06;98453.72;5056166;28;20105;-80
2021/04/27 01:52:07;;;;;;;60.33;23.98;;;;;;;1.42;46.36;98463.47;5055825;28;20290;-81
2021/04/27 01:54:33;;;;;;;59.15;24.08;;;;;;;1.38;46.10;98451.47;5055923;28;20104;-80
2021/04/27 01:56:58;;;;;;;61.05;23.27;;;;;;;1.34;46.42;98456.50;5055739;28;20531;-80
2021/04/27 01:59:24;;;;;;;58.15;25.00;;;;;;;1.26;46.52;98456.84;5055665;28;20029;-80
2021/04/27 02:01:50;;;;;;;60.70;22.92;;;;;;;1.23;46.41;98462.72;5055333;28;20028;-79
2021/04/27 02:04:28;;;;;;;57.80;23.95;;;;;;;1.17;46.83;98459.09;5055422;28;20029;-81
2021/04/27 02:06:54;;;;;;;56.90;22.70;;;;;;;1.17;46.81;98464.50;5055498;28;20029;-80
2021/04/27 02:09:22;;;;;;;54.85;21.23;;;;;;;1.15;46.91;98455.81;5055438;28;20087;-81
2021/04/27 02:11:51;;;;;;;55.92;22.75;;;;;;;1.14;47.11;98454.16;5055394;28;20025;-80
2021/04/27 02:14:17;;;;;;;61.25;23.58;;;;;;;1.10;47.30;98455.69;5055369;28;20358;-80
2021/04/27 02:17:04;;;;;;;65.93;25.38;;;;;;;1.06;47.17;98457.22;5055140;28;20127;-80
2021/04/27 02:19:34;;;;;;;70.97;26.17;;;;;;;0.94;47.31;98451.81;5055278;28;20035;-81
2021/04/27 02:22:02;;;;;;;63.30;23.40;;;;;;;0.81;47.33;98454.75;5055158;28;20036;-78
2021/04/27 02:24:28;;;;;;;65.97;24.90;;;;;;;0.74;48.02;98455.66;5054071;28;20079;-78
2021/04/27 02:26:54;;;;;;;67.15;24.60;;;;;;;0.73;48.08;98453.19;5055417;28;20029;-79
2021/04/27 02:29:21;;;;;;;63.00;23.95;;;;;;;0.71;48.15;98452.59;5055448;28;20052;-79
2021/04/27 02:31:46;;;;;;;60.38;22.83;;;;;;;0.66;48.23;98450.59;5055133;28;20065;-79
2021/04/27 02:34:12;;;;;;;59.33;22.83;;;;;;;0.65;48.00;98458.91;5055018;28;20515;-79
2021/04/27 02:36:40;;;;;;;58.60;22.65;;;;;;;0.65;48.36;98453.50;5055273;28;20027;-79
2021/04/27 02:39:07;;;;;;;60.35;22.23;;;;;;;0.67;48.41;98452.25;5054891;28;20559;-79
2021/04/27 02:41:34;;;;;;;57.97;23.35;;;;;;;0.66;48.39;98444.38;5054733;28;20020;-78
2021/04/27 02:44:01;;;;;;;56.60;22.63;;;;;;;0.66;48.45;98452.47;5054716;28;20071;-79
2021/04/27 02:46:27;;;;;;;57.70;22.00;;;;;;;0.64;48.24;98446.47;5054971;28;20419;-79
2021/04/27 02:48:53;;;;;;;57.15;20.92;;;;;;;0.60;48.46;98446.13;5055165;28;20384;-79
2021/04/27 02:51:18;;;;;;;58.78;22.20;;;;;;;0.55;48.58;98444.13;5054261;28;20029;-78
2021/04/27 02:53:43;;;;;;;54.42;21.17;;;;;;;0.51;48.99;98440.25;5054267;28;20104;-79
2021/04/27 02:56:09;;;;;;;52.45;21.38;;;;;;;0.49;48.80;98444.22;5054060;28;20064;-79
2021/04/27 02:58:34;;;;;;;49.65;20.85;;;;;;;0.46;49.00;98441.97;5054113;28;20033;-78
2021/04/27 03:00:59;;;;;;;58.00;21.85;;;;;;;0.45;48.75;98443.88;5054114;28;20029;-79
2021/04/27 03:03:25;;;;;;;59.53;22.20;;;;;;;0.43;48.76;98440.56;5054072;28;20075;-78
2021/04/27 03:05:50;;;;;;;56.75;22.50;;;;;;;0.42;49.15;98445.13;5054456;28;20025;-78
2021/04/27 03:08:16;;;;;;;46.92;21.08;;;;;;;0.39;48.58;98444.78;5054552;28;20017;-78
2021/04/27 03:10:41;;;;;;;46.80;21.88;;;;;;;0.36;48.98;98439.84;5054698;28;20029;-78
2021/04/27 03:13:07;;;;;;;46.70;20.08;;;;;;;0.34;49.09;98441.94;5054429;28;20028;-78
2021/04/27 03:15:33;;;;;;;46.55;18.90;;;;;;;0.29;49.34;98440.75;5054178;28;20105;-77
2021/04/27 03:17:58;;;;;;;50.00;20.33;;;;;;;0.26;48.97;98443.91;5054442;28;20071;-78
2021/04/27 03:20:24;;;;;;;52.97;20.70;;;;;;;0.22;49.29;98445.41;5054071;28;20021;-77
2021/04/27 03:22:49;;;;;;;48.95;20.27;;;;;;;0.17;49.53;98448.00;5054466;28;20037;-78
2021/04/27 03:25:15;;;;;;;50.42;20.80;;;;;;;0.15;49.64;98444.72;5054333;28;20025;-77
2021/04/27 03:27:42;;;;;;;55.10;20.88;;;;;;;0.11;49.52;98438.13;5053498;28;20465;-76
2021/04/27 03:30:11;;;;;;;52.53;21.58;;;;;;;0.08;49.69;98438.59;5054348;28;20385;-77
2021/04/27 03:32:37;;;;;;;49.17;20.58;;;;;;;0.06;49.83;98440.69;5054124;28;20123;-77
2021/04/27 03:35:05;;;;;;;47.50;20.88;;;;;;;0.07;50.06;98439.63;5053110;28;20104;-78
2021/04/27 03:37:30;;;;;;;53.25;20.67;;;;;;;0.07;49.97;98448.53;5053502;28;20507;-77
2021/04/27 03:39:56;;;;;;;52.63;21.80;;;;;;;0.11;50.31;98443.53;5053543;28;20033;-77
2021/04/27 03:42:21;;;;;;;51.60;21.23;;;;;;;0.14;50.25;98437.66;5052787;28;20047;-77
2021/04/27 03:44:46;;;;;;;49.72;21.00;;;;;;;0.13;50.17;98438.72;5053433;28;20091;-77
2021/04/27 03:47:12;;;;;;;58.33;23.02;;;;;;;0.14;50.37;98437.66;5053098;28;20100;-76
2021/04/27 03:49:38;;;;;;;53.80;22.88;;;;;;;0.16;50.47;98434.72;5053178;28;20104;-77
2021/04/27 03:52:04;;;;;;;60.60;23.77;;;;;;;0.16;50.46;98432.03;5053570;28;20075;-77
2021/04/27 03:54:29;;;;;;;62.08;24.38;;;;;;;0.17;50.61;98430.97;5051912;28;20147;-76
2021/04/27 03:56:55;;;;;;;67.55;27.50;;;;;;;0.17;50.72;98442.59;5053030;28;20090;-77
2021/04/27 03:59:20;;;;;;;63.15;26.73;;;;;;;0.19;50.58;98439.66;5053122;28;20028;-76
2021/04/27 04:01:46;;;;;;;61.67;24.52;;;;;;;0.17;50.44;98431.81;5051555;28;20025;-77
2021/04/27 04:04:11;;;;;;;60.88;24.95;;;;;;;0.21;50.76;98438.38;5052194;28;20044;-77
2021/04/27 04:06:37;;;;;;;61.85;25.42;;;;;;;0.25;50.62;98438.75;5051701;28;20040;-76
2021/04/27 04:09:05;;;;;;;62.35;23.55;;;;;;;0.28;50.56;98436.41;5049014;28;20435;-77
2021/04/27 04:11:32;;;;;;;56.65;24.05;;;;;;;0.29;50.86;98439.94;5051653;28;20108;-78
2021/04/27 04:13:58;;;;;;;60.40;24.17;;;;;;;0.29;50.97;98443.44;5051565;28;20112;-76
2021/04/27 04:16:24;;;;;;;55.53;24.25;;;;;;;0.29;51.44;98443.44;5051452;28;20047;-78
2021/04/27 04:18:49;;;;;;;54.83;22.63;;;;;;;0.31;50.89;98445.09;5051742;28;20037;-77
2021/04/27 04:21:15;;;;;;;63.00;25.33;;;;;;;0.33;51.28;98448.38;5051488;28;20043;-78
2021/04/27 04:23:40;;;;;;;59.42;24.83;;;;;;;0.37;51.32;98449.59;5051598;28;20380;-78
2021/04/27 04:26:05;;;;;;;59.00;24.33;;;;;;;0.40;51.22;98460.75;5051410;28;20078;-78
2021/04/27 04:28:31;;;;;;;57.08;26.30;;;;;;;0.44;51.20;98458.41;5051348;28;20095;-77
2021/04/27 04:30:56;;;;;;;59.72;23.85;;;;;;;0.45;51.18;98451.97;5051324;28;20028;-75
2021/04/27 04:33:21;;;;;;;62.95;28.42;;;;;;;0.47;51.19;98451.72;5051269;28;20442;-77
2021/04/27 04:35:47;;;;;;;69.28;29.95;;;;;;;0.51;51.47;98445.66;5051517;28;20024;-78
2021/04/27 04:38:14;;;;;;;74.00;30.05;;;;;;;0.57;51.55;98451.97;5051154;28;20033;-78
2021/04/27 04:40:40;;;;;;;70.78;27.50;;;;;;;0.62;51.46;98456.69;5051022;28;20380;-77
2021/04/27 04:43:05;;;;;;;72.35;28.17;;;;;;;0.70;51.51;98462.59;5050970;28;20043;-78
2021/04/27 04:45:30;;;;;;;68.15;27.83;;;;;;;0.76;51.38;98463.53;5049876;28;20017;-78
2021/04/27 04:47:56;;;;;;;69.70;27.45;;;;;;;0.83;51.42;98458.84;5050735;28;20485;-78
2021/04/27 04:50:22;;;;;;;62.63;26.40;;;;;;;0.85;51.34;98462.13;5051114;28;20729;-78
2021/04/27 04:52:47;;;;;;;68.25;25.65;;;;;;;0.94;51.42;98461.81;5051050;28;20031;-77
2021/04/27 04:55:14;;;;;;;59.40;26.05;;;;;;;0.95;51.33;98469.66;5050479;28;20473;-77
2021/04/27 04:57:40;;;;;;;60.95;24.83;;;;;;;0.98;51.65;98471.09;5051079;28;20495;-78
2021/04/27 05:00:08;;;;;;;50.70;22.58;;;;;;;1.04;51.67;98468.25;5051312;28;20127;-79
2021/04/27 05:02:34;;;;;;;48.60;20.77;;;;;;;1.12;51.65;98467.09;5050658;28;20037;-79
2021/04/27 05:04:59;;;;;;;44.08;18.52;;;;;;;1.19;51.82;98470.50;5050515;28;20025;-79
2021/04/27 05:07:26;;;;;;;35.45;16.20;;;;;;;1.25;51.74;98470.63;5049649;28;20025;-79
2021/04/27 05:09:52;;;;;;;37.45;15.95;;;;;;;1.32;52.12;98474.84;5050766;28;20025;-79
2021/04/27 05:12:17;;;;;;;42.33;16.83;;;;;;;1.40;52.14;98476.38;5050833;28;20028;-79
2021/04/27 05:14:43;;;;;;;35.65;16.33;;;;;;;1.47;51.88;98482.47;5050730;28;20025;-79
2021/04/27 05:17:13;;;;;;;36.58;15.45;;;;;;;1.54;51.78;98476.97;5050502;28;21433;-80
2021/04/27 05:19:38;;;;;;;33.30;15.00;;;;;;;1.56;52.01;98477.53;5048587;28;20523;-80
2021/04/27 05:22:05;;;;;;;36.50;14.98;;;;;;;1.60;51.52;98480.59;5050597;28;20029;-80
2021/04/27 05:24:32;;;;;;;40.28;15.30;;;;;;;1.61;51.92;98479.53;5050724;28;20480;-80
2021/04/27 05:26:57;;;;;;;32.13;14.13;;;;;;;1.64;51.96;98485.25;5050693;28;20621;-79
2021/04/27 05:29:23;;;;;;;31.40;13.93;;;;;;;1.73;51.98;98485.75;5050582;28;20051;-79
2021/04/27 05:31:49;;;;;;;33.40;14.15;;;;;;;1.78;51.46;98488.56;5050782;28;20028;-79
2021/04/27 05:34:16;;;;;;;36.03;15.32;;;;;;;1.86;51.44;98492.78;5048021;28;20017;-79
2021/04/27 05:36:42;;;;;;;32.47;14.45;;;;;;;1.89;52.06;98486.88;5050489;28;20100;-79
2021/04/27 05:39:07;;;;;;;32.55;13.15;;;;;;;1.97;52.09;98485.69;5050766;28;20137;-80
2021/04/27 05:41:33;;;;;;;34.35;13.25;;;;;;;2.06;52.04;98481.53;5050353;28;20092;-80
2021/04/27 05:43:58;;;;;;;35.40;14.00;;;;;;;2.15;51.63;98481.19;5050216;28;20067;-79
2021/04/27 05:46:23;;;;;;;26.13;12.43;;;;;;;2.26;52.06;98493.81;5050505;28;20043;-79
2021/04/27 05:48:49;;;;;;;29.25;12.93;;;;;;;2.36;51.49;98488.59;5050388;28;20033;-79
2021/04/27 05:51:14;;;;;;;29.63;12.02;;;;;;;2.44;51.83;98490.13;5050303;28;20108;-79
2021/04/27 05:53:39;;;;;;;24.65;11.35;;;;;;;2.55;51.68;98491.13;5050323;28;20024;-79
2021/04/27 05:56:05;;;;;;;23.67;12.00;;;;;;;2.65;51.41;98499.41;5050354;28;20028;-79
2021/04/27 05:58:30;;;;;;;22.67;10.77;;;;;;;2.76;51.63;98494.19;5051163;28;20154;-79
2021/04/27 06:00:55;;;;;;;23.60;11.52;;;;;;;2.89;50.98;98502.00;5053784;28;20469;-79
2021/04/27 06:03:21;;;;;;;22.17;10.25;;;;;;;2.95;50.98;98495.63;5053782;28;20538;-79
2021/04/27 06:05:46;;;;;;;28.55;11.07;;;;;;;3.04;50.97;98493.31;5054098;28;20021;-79
2021/04/27 06:08:11;;;;;;;21.75;10.82;;;;;;;3.13;51.09;98491.00;5053758;28;20025;-79
2021/04/27 06:10:37;;;;;;;25.95;11.13;;;;;;;3.24;50.43;98494.72;5053952;28;20017;-79
2021/04/27 06:13:02;;;;;;;22.38;10.50;;;;;;;3.34;50.92;98497.56;5053517;28;20029;-79
2021/04/27 06:15:27;;;;;;;22.48;10.77;;;;;;;3.42;49.94;98493.63;5053657;28;20025;-79
2021/04/27 06:17:54;;;;;;;20.83;10.80;;;;;;;3.46;49.54;98511.06;5053200;28;20122;-79
2021/04/27 06:20:19;;;;;;;26.67;12.05;;;;;;;3.52;49.62;98495.66;5053505;28;20028;-78
2021/04/27 06:22:45;;;;;;;24.73;10.93;;;;;;;3.62;49.52;98500.41;5053708;28;20037;-79
2021/04/27 06:25:11;;;;;;;26.00;12.20;;;;;;;3.69;49.79;98501.06;5053232;28;20032;-79
2021/04/27 06:27:36;;;;;;;40.60;15.95;;;;;;;3.77;49.35;98500.63;5053447;28;20028;-79
2021/04/27 06:30:06;;;;;;;21.40;10.40;;;;;;;3.86;49.09;98503.72;5053528;28;20444;-79
2021/04/27 06:32:31;;;;;;;139.75;48.38;;;;;;;3.90;48.84;98501.31;5053238;28;20021;-78
2021/04/27 06:34:57;;;;;;;66.70;23.42;;;;;;;3.97;48.93;98499.25;5053403;28;20067;-79
2021/04/27 06:37:22;;;;;;;72.30;27.63;;;;;;;4.04;49.09;98507.22;5053158;28;20017;-79
2021/04/27 06:39:48;;;;;;;27.45;11.43;;;;;;;4.13;48.79;98503.81;5054446;28;20035;-79
2021/04/27 06:42:13;;;;;;;22.13;11.60;;;;;;;4.22;48.26;98508.78;5054658;28;20103;-79
2021/04/27 06:44:39;;;;;;;17.27;9.02;;;;;;;4.35;48.27;98502.97;5054383;28;20480;-79
2021/04/27 06:47:06;;;;;;;15.30;7.88;;;;;;;4.44;48.48;98504.16;5054059;28;20028;-79
2021/04/27 06:49:33;;;;;;;28.73;12.15;;;;;;;4.52;47.93;98507.50;5054085;28;20021;-79
2021/04/27 06:51:58;;;;;;;76.95;22.25;;;;;;;4.59;47.68;98502.69;5054011;28;20028;-79
2021/04/27 06:54:23;;;;;;;56.40;16.60;;;;;;;4.67;47.88;98502.22;5054373;28;20025;-79
2021/04/27 06:56:49;;;;;;;17.70;7.57;;;;;;;4.75;47.91;98499.03;5053946;28;20021;-79
2021/04/27 06:59:16;;;;;;;17.95;8.57;;;;;;;4.86;47.38;98501.84;5053775;28;20055;-79
2021/04/27 07:01:41;;;;;;;15.23;6.95;;;;;;;4.95;47.53;98505.75;5053901;28;20025;-79
2021/04/27 07:04:07;;;;;;;13.20;6.40;;;;;;;5.09;47.32;98497.97;5054099;28;20028;-79
2021/04/27 07:06:32;;;;;;;14.25;7.13;;;;;;;5.21;47.54;98503.22;5054019;28;20036;-79
2021/04/27 07:08:57;;;;;;;12.35;6.28;;;;;;;5.33;46.80;98498.44;5053770;28;20499;-79
2021/04/27 07:11:23;;;;;;;12.27;6.30;;;;;;;5.46;46.38;98499.06;5053305;28;20032;-79
2021/04/27 07:13:48;;;;;;;14.45;6.93;;;;;;;5.57;46.28;98499.97;5053444;28;20051;-79
2021/04/27 07:16:16;;;;;;;12.45;6.00;;;;;;;5.57;46.11;98503.47;5053667;28;20044;-79
2021/04/27 07:18:41;;;;;;;7.63;4.75;;;;;;;5.59;45.58;98501.31;5053385;28;20100;-79
2021/04/27 07:21:07;;;;;;;13.18;5.13;;;;;;;5.61;45.03;98493.72;5053463;28;20477;-79
2021/04/27 07:23:33;;;;;;;14.40;5.88;;;;;;;5.63;44.64;98504.34;5053752;28;20052;-79
2021/04/27 07:25:59;;;;;;;13.50;5.28;;;;;;;5.74;44.58;98494.34;5053732;28;20393;-79
2021/04/27 07:28:24;;;;;;;11.15;5.75;;;;;;;5.88;44.73;98491.97;5053478;28;20465;-78
2021/04/27 07:30:51;;;;;;;11.57;5.95;;;;;;;6.03;45.03;98499.41;5053426;28;20481;-79
2021/04/27 07:33:17;;;;;;;14.40;6.13;;;;;;;6.08;44.00;98497.56;5052486;28;20033;-77
2021/04/27 07:35:42;;;;;;;12.27;5.88;;;;;;;6.17;44.42;98495.13;5050736;28;20478;-76
2021/04/27 07:38:08;;;;;;;12.32;5.18;;;;;;;6.28;44.53;98498.69;5052161;28;20074;-78
2021/04/27 07:40:34;;;;;;;10.23;5.63;;;;;;;6.36;44.12;98502.81;5051371;28;20060;-78
2021/04/27 07:43:00;;;;;;;9.25;4.38;;;;;;;6.44;43.86;98494.13;5028429;28;20091;-79
2021/04/27 07:45:31;;;;;;;9.32;3.88;;;;;;;6.46;42.86;98489.22;5019787;28;20038;-79
2021/04/27 07:47:58;;;;;;;20.85;6.90;;;;;;;6.50;42.39;98493.03;5021381;28;20199;-78
2021/04/27 07:50:24;;;;;;;33.72;10.15;;;;;;;6.50;41.25;98487.59;5063174;28;20095;-79
2021/04/27 07:52:49;;;;;;;18.23;6.53;;;;;;;6.53;41.91;98499.84;5031130;28;20029;-78
2021/04/27 07:55:15;;;;;;;82.47;26.02;;;;;;;6.56;40.38;98488.41;5033034;28;20036;-79
2021/04/27 07:57:40;;;;;;;38.03;18.08;;;;;;;6.61;40.11;98491.16;5032380;28;20032;-78
2021/04/27 08:00:08;;;;;;;8.13;3.78;;;;;;;6.65;39.65;98486.00;5033117;28;20017;-79
2021/04/27 08:02:33;;;;;;;7.38;3.70;;;;;;;6.74;40.47;98498.00;5040952;28;20055;-79
2021/04/27 08:04:59;;;;;;;9.27;3.40;;;;;;;6.81;39.45;98493.09;5051303;28;20457;-79
2021/04/27 08:07:24;;;;;;;10.70;4.13;;;;;;;6.85;39.92;98498.84;5051257;28;20057;-79
2021/04/27 08:09:50;;;;;;;16.60;5.95;;;;;;;6.90;39.46;98487.94;5052262;28;20028;-79
2021/04/27 08:12:15;;;;;;;12.45;6.18;;;;;;;6.94;39.30;98486.28;5052375;28;20380;-78
2021/04/27 08:14:40;;;;;;;16.40;5.68;;;;;;;6.99;39.15;98490.94;5052673;28;20070;-79
2021/04/27 08:17:07;;;;;;;10.20;4.72;;;;;;;7.03;38.95;98483.88;5052636;28;20454;-79
2021/04/27 08:19:32;;;;;;;12.88;5.38;;;;;;;7.03;38.81;98483.03;5052703;28;20035;-78
2021/04/27 08:21:58;;;;;;;8.75;4.43;;;;;;;7.02;38.59;98487.69;5051788;28;20112;-79
2021/04/27 08:24:23;;;;;;;10.13;4.45;;;;;;;7.01;38.18;98488.78;5052539;28;20089;-79
2021/04/27 08:26:49;;;;;;;8.88;3.42;;;;;;;7.02;36.62;98487.69;5051854;28;20032;-78
2021/04/27 08:29:14;;;;;;;7.25;3.60;;;;;;;6.99;37.34;98491.75;5050776;28;20112;-79
2021/04/27 08:31:39;;;;;;;15.75;6.75;;;;;;;7.03;37.68;98485.75;5051398;28;20025;-79
2021/04/27 08:34:05;;;;;;;7.88;4.47;;;;;;;7.14;37.24;98490.94;5051937;28;20107;-79
2021/04/27 08:36:30;;;;;;;13.10;4.93;;;;;;;7.27;37.90;98488.75;5051658;28;20460;-79
2021/04/27 08:38:55;;;;;;;14.90;6.35;;;;;;;7.42;38.05;98485.19;5051671;28;20041;-80
2021/04/27 08:41:25;;;;;;;15.60;6.95;;;;;;;7.63;38.38;98485.97;5051277;28;20029;-79
2021/04/27 08:43:51;;;;;;;17.52;6.97;;;;;;;7.76;38.44;98484.59;5049381;28;20033;-79
2021/04/27 08:46:17;;;;;;;8.20;4.78;;;;;;;7.77;37.74;98486.22;5051962;28;20060;-79
2021/04/27 08:48:43;;;;;;;12.60;5.72;;;;;;;7.78;38.25;98487.06;5051785;28;20125;-79
2021/04/27 08:51:10;;;;;;;11.55;5.03;;;;;;;7.83;38.34;98490.56;5051786;28;20036;-79
2021/04/27 08:53:36;;;;;;;10.20;5.38;;;;;;;7.77;37.75;98479.94;5051976;28;20147;-79
2021/04/27 08:56:01;;;;;;;12.13;5.97;;;;;;;7.69;37.55;98479.41;5050915;28;20112;-79
2021/04/27 08:58:27;;;;;;;11.88;5.25;;;;;;;7.66;37.21;98482.69;5052340;28;20029;-79
2021/04/27 09:00:52;;;;;;;22.50;9.95;;;;;;;7.63;37.35;98477.78;5052159;28;20112;-79
2021/04/27 09:03:17;;;;;;;18.35;7.47;;;;;;;7.71;37.17;98474.50;5052087;28;20051;-79
2021/04/27 09:05:44;;;;;;;13.05;6.63;;;;;;;7.79;37.48;98470.38;5052184;28;20029;-79
2021/04/27 09:08:09;;;;;;;14.40;6.00;;;;;;;7.88;37.00;98473.38;5052219;28;20060;-80
2021/04/27 09:10:43;;;;;;;16.73;6.63;;;;;;;7.86;36.99;98465.44;5052285;28;20025;-80
2021/04/27 09:13:15;;;;;;;18.20;9.52;;;;;;;7.95;37.03;98470.34;5051917;28;20029;-79
2021/04/27 09:15:47;;;;;;;21.15;10.02;;;;;;;7.97;36.78;98466.22;5050606;28;20059;-80
2021/04/27 09:18:29;;;;;;;14.20;7.28;;;;;;;8.03;36.58;98472.50;5051905;28;20071;-79
2021/04/27 09:20:57;;;;;;;14.07;6.65;;;;;;;8.01;35.88;98472.75;5050620;28;20021;-79
2021/04/27 09:23:24;;;;;;;10.98;5.50;;;;;;;8.07;36.52;98470.00;5051977;28;20381;-79
2021/04/27 09:26:18;;;;;;;13.93;7.05;;;;;;;8.17;36.42;98464.50;5052309;28;20029;-79
2021/04/27 09:28:48;;;;;;;29.40;13.45;;;;;;;8.23;35.82;98462.56;5051834;28;20159;-79
2021/04/27 09:31:33;;;;;;;10.15;5.85;;;;;;;8.31;36.67;98460.09;5052196;28;20075;-79
2021/04/27 09:34:26;;;;;;;11.57;4.95;;;;;;;8.46;36.98;98461.91;5053927;28;20036;-79
2021/04/27 09:36:56;;;;;;;13.85;6.63;;;;;;;8.62;37.28;98454.47;5055658;28;20495;-79
2021/04/27 09:39:52;;;;;;;23.35;12.75;;;;;;;8.68;35.13;98448.97;5055986;28;20025;-79
2021/04/27 09:42:23;;;;;;;9.70;5.22;;;;;;;8.69;35.20;98447.88;5055640;28;20036;-79
2021/04/27 09:44:54;;;;;;;16.15;8.98;;;;;;;8.65;34.84;98444.88;5055551;28;20047;-79
2021/04/27 09:47:31;;;;;;;11.77;5.13;;;;;;;8.61;34.09;98444.63;5055730;28;20017;-79
2021/04/27 09:50:07;;;;;;;19.67;10.75;;;;;;;8.62;34.36;98446.25;5055915;28;20043;-79
2021/04/27 09:52:40;;;;;;;14.40;6.70;;;;;;;8.75;35.26;98438.53;5055690;28;20083;-79
2021/04/27 09:55:12;;;;;;;14.27;7.97;;;;;;;8.94;35.80;98433.97;5054421;28;20112;-78
2021/04/27 09:57:48;;;;;;;21.40;10.55;;;;;;;9.08;35.15;98420.47;5055827;28;20124;-79
2021/04/27 10:00:27;;;;;;;13.73;7.15;;;;;;;9.16;34.33;98427.25;5054151;28;20017;-79
2021/04/27 10:02:57;;;;;;;12.77;7.15;;;;;;;9.17;34.49;98426.13;5055619;28;20033;-79
2021/04/27 10:05:23;;;;;;;13.27;5.50;;;;;;;9.19;34.54;98429.38;5054984;28;20033;-79
2021/04/27 10:07:48;;;;;;;13.30;7.45;;;;;;;9.21;34.52;98424.44;5055300;28;20377;-79
2021/04/27 10:10:16;;;;;;;14.13;8.02;;;;;;;9.28;34.83;98426.03;5055302;28;20064;-79
2021/04/27 10:12:43;;;;;;;11.20;6.20;;;;;;;9.39;35.20;98424.84;5055302;28;20032;-79
2021/04/27 10:15:10;;;;;;;10.70;6.03;;;;;;;9.55;35.17;98427.41;5054936;28;20104;-79
2021/04/27 10:17:36;;;;;;;9.52;5.28;;;;;;;9.64;35.38;98415.53;5055009;28;20444;-80
2021/04/27 10:20:05;;;;;;;11.73;6.10;;;;;;;9.60;34.76;98410.91;5055203;28;20021;-80
2021/04/27 10:22:30;;;;;;;12.10;6.03;;;;;;;9.64;35.07;98410.06;5055045;28;20115;-80
2021/04/27 10:24:56;;;;;;;10.27;5.30;;;;;;;9.81;34.44;98414.22;5054934;28;20057;-79
2021/04/27 10:27:26;;;;;;;12.52;6.05;;;;;;;9.90;34.84;98409.75;5055165;28;20032;-80
2021/04/27 10:30:14;;;;;;;11.50;6.32;;;;;;;10.01;35.50;98407.69;5055111;28;20032;-79
2021/04/27 10:32:40;;;;;;;11.15;6.20;;;;;;;10.21;34.93;98401.13;5054869;28;20051;-80
2021/04/27 10:35:08;;;;;;;10.20;5.45;;;;;;;10.30;34.90;98395.81;5054847;28;20442;-80
2021/04/27 10:38:01;;;;;;;14.23;6.45;;;;;;;10.46;35.20;98396.44;5054635;28;20029;-80
2021/04/27 10:40:52;;;;;;;11.02;6.55;;;;;;;10.49;34.40;98392.25;5053304;28;20474;-80
2021/04/27 10:43:23;;;;;;;11.45;6.63;;;;;;;10.51;34.15;98387.28;5054578;28;20051;-80
2021/04/27 10:45:50;;;;;;;9.55;5.60;;;;;;;10.58;33.36;98379.50;5053454;28;20025;-80
2021/04/27 10:48:41;;;;;;;12.00;6.00;;;;;;;10.68;34.49;98386.75;5054526;28;20048;-80
2021/04/27 10:51:24;;;;;;;13.20;6.50;;;;;;;10.76;34.51;98377.06;5054360;28;20036;-80
2021/04/27 10:54:12;;;;;;;11.43;6.07;;;;;;;10.78;33.47;98372.09;5054408;28;20025;-80
2021/04/27 10:56:46;;;;;;;9.30;4.93;;;;;;;10.71;33.06;98356.81;5054384;28;20017;-79
2021/04/27 10:59:24;;;;;;;11.70;6.60;;;;;;;10.77;33.53;98356.75;5054157;28;20396;-80
2021/04/27 11:02:12;;;;;;;12.10;5.53;;;;;;;10.83;32.82;98356.34;5054431;28;20028;-80
2021/04/27 11:04:58;;;;;;;8.43;5.22;;;;;;;10.85;32.78;98353.28;5054439;28;20492;-80
2021/04/27 11:07:24;;;;;;;11.13;6.10;;;;;;;10.89;32.99;98348.81;5054011;28;20101;-79
2021/04/27 11:10:09;;;;;;;13.02;6.78;;;;;;;11.04;33.80;98353.22;5054337;28;20048;-79
2021/04/27 11:12:41;;;;;;;10.30;6.07;;;;;;;11.20;33.07;98359.28;5053543;28;20039;-78
2021/04/27 11:15:12;;;;;;;10.57;5.50;;;;;;;11.31;33.63;98360.69;5054044;28;20021;-78
2021/04/27 11:17:40;;;;;;;9.32;5.35;;;;;;;11.29;32.33;98346.47;5053861;28;20068;-78
2021/04/27 11:20:08;;;;;;;16.27;6.10;;;;;;;11.12;32.24;98340.75;5053961;28;20104;-78
2021/04/27 11:22:36;;;;;;;9.05;5.70;;;;;;;11.06;31.42;98339.22;5054000;28;20408;-78
2021/04/27 11:25:06;;;;;;;12.38;5.95;;;;;;;10.97;31.48;98341.84;5054045;28;20029;-78
2021/04/27 11:27:37;;;;;;;12.20;6.05;;;;;;;10.91;31.34;98332.09;5054029;28;20217;-78
2021/04/27 11:30:07;;;;;;;10.25;5.35;;;;;;;11.01;32.77;98335.44;5053911;28;20421;-79
2021/04/27 11:32:34;;;;;;;12.88;5.38;;;;;;;11.08;32.46;98335.03;5053806;28;20066;-78